sensor_id;sensor_type;location;lat;lon;timestamp;temperature;humidity
18305;DHT22;9278;52.156;21.048;2023-05-07T00:31:11;8.30;99.90
18305;DHT22;9278;52.156;21.048;2023-05-07T00:48:32;8.50;99.90
18305;DHT22;9278;52.156;21.048;2023-05-07T00:53:30;8.30;99.90
18305;DHT22;9278;52.156;21.048;2023-05-07T01:05:56;8.00;99.90
18305;DHT22;9278;52.156;21.048;2023-05-07T01:08:26;8.20;99.90
18305;DHT22;9278;52.156;21.048;2023-05-07T01:23:21;8.30;99.90
18305;DHT22;9278;52.156;21.048;2023-05-07T01:25:52;8.10;99.90
18305;DHT22;9278;52.156;21.048;2023-05-07T01:31:00;8.00;99.90
18305;DHT22;9278;52.156;21.048;2023-05-07T01:33:33;8.20;99.90
18305;DHT22;9278;52.156;21.048;2023-05-07T01:36:03;8.10;99.90
18305;DHT22;9278;52.156;21.048;2023-05-07T01:38:35;8.20;99.90
18305;DHT22;9278;52.156;21.048;2023-05-07T01:46:02;8.00;99.90
18305;DHT22;9278;52.156;21.048;2023-05-07T01:48:32;8.00;99.90
18305;DHT22;9278;52.156;21.048;2023-05-07T01:51:02;8.10;99.90
18305;DHT22;9278;52.156;21.048;2023-05-07T01:53:36;8.30;99.90
18305;DHT22;9278;52.156;21.048;2023-05-07T02:08:40;8.30;99.90
18305;DHT22;9278;52.156;21.048;2023-05-07T02:26:05;7.80;99.90
18305;DHT22;9278;52.156;21.048;2023-05-07T02:36:07;8.00;99.90
18305;DHT22;9278;52.156;21.048;2023-05-07T02:41:11;8.10;99.90
18305;DHT22;9278;52.156;21.048;2023-05-07T02:46:08;8.20;99.90
18305;DHT22;9278;52.156;21.048;2023-05-07T03:31:06;8.00;99.90
18305;DHT22;9278;52.156;21.048;2023-05-07T03:48:34;8.30;99.90
18305;DHT22;9278;52.156;21.048;2023-05-07T04:03:37;8.30;99.90
18305;DHT22;9278;52.156;21.048;2023-05-07T04:16:08;8.00;99.90
18305;DHT22;9278;52.156;21.048;2023-05-07T04:18:39;7.70;99.90
18305;DHT22;9278;52.156;21.048;2023-05-07T04:21:14;8.00;99.90
18305;DHT22;9278;52.156;21.048;2023-05-07T04:23:43;8.10;99.90
18305;DHT22;9278;52.156;21.048;2023-05-07T04:26:13;9.10;99.90
18305;DHT22;9278;52.156;21.048;2023-05-07T04:28:43;7.80;99.90
18305;DHT22;9278;52.156;21.048;2023-05-07T04:31:11;7.80;99.90
18305;DHT22;9278;52.156;21.048;2023-05-07T04:33:41;8.00;99.90
18305;DHT22;9278;52.156;21.048;2023-05-07T04:36:13;7.90;99.90
18305;DHT22;9278;52.156;21.048;2023-05-07T04:38:50;7.80;99.90
18305;DHT22;9278;52.156;21.048;2023-05-07T04:41:19;7.90;99.90
18305;DHT22;9278;52.156;21.048;2023-05-07T04:43:48;7.80;99.90
18305;DHT22;9278;52.156;21.048;2023-05-07T04:46:18;7.90;99.90
18305;DHT22;9278;52.156;21.048;2023-05-07T04:48:50;7.90;99.90
18305;DHT22;9278;52.156;21.048;2023-05-07T04:51:18;7.90;99.90
18305;DHT22;9278;52.156;21.048;2023-05-07T04:53:46;7.60;99.90
18305;DHT22;9278;52.156;21.048;2023-05-07T04:56:14;7.90;99.90
18305;DHT22;9278;52.156;21.048;2023-05-07T04:58:44;7.90;99.90
18305;DHT22;9278;52.156;21.048;2023-05-07T05:03:43;7.80;99.90
18305;DHT22;9278;52.156;21.048;2023-05-07T05:06:13;7.90;99.90
18305;DHT22;9278;52.156;21.048;2023-05-07T05:08:41;8.00;99.90
18305;DHT22;9278;52.156;21.048;2023-05-07T05:11:10;7.90;99.90
18305;DHT22;9278;52.156;21.048;2023-05-07T05:13:38;7.90;99.90
18305;DHT22;9278;52.156;21.048;2023-05-07T05:16:15;8.00;99.90
18305;DHT22;9278;52.156;21.048;2023-05-07T05:18:44;8.10;99.90
18305;DHT22;9278;52.156;21.048;2023-05-07T05:21:16;8.20;99.90
18305;DHT22;9278;52.156;21.048;2023-05-07T05:23:48;8.50;99.90
18305;DHT22;9278;52.156;21.048;2023-05-07T05:26:20;8.20;99.90
18305;DHT22;9278;52.156;21.048;2023-05-07T05:28:49;8.30;99.90
18305;DHT22;9278;52.156;21.048;2023-05-07T05:31:20;8.70;99.90
18305;DHT22;9278;52.156;21.048;2023-05-07T05:33:50;8.80;99.90
18305;DHT22;9278;52.156;21.048;2023-05-07T05:36:19;8.90;99.90
18305;DHT22;9278;52.156;21.048;2023-05-07T05:38:50;8.80;99.90
18305;DHT22;9278;52.156;21.048;2023-05-07T05:41:18;9.00;99.90
18305;DHT22;9278;52.156;21.048;2023-05-07T05:43:48;8.70;99.90
18305;DHT22;9278;52.156;21.048;2023-05-07T05:46:18;8.90;99.90
18305;DHT22;9278;52.156;21.048;2023-05-07T05:48:48;9.00;99.90
18305;DHT22;9278;52.156;21.048;2023-05-07T05:51:18;8.90;99.90
18305;DHT22;9278;52.156;21.048;2023-05-07T05:53:46;8.90;99.90
18305;DHT22;9278;52.156;21.048;2023-05-07T06:01:12;9.10;99.90
18305;DHT22;9278;52.156;21.048;2023-05-07T06:03:40;9.10;99.90
18305;DHT22;9278;52.156;21.048;2023-05-07T06:06:13;8.80;99.90
18305;DHT22;9278;52.156;21.048;2023-05-07T06:08:44;9.20;99.90
18305;DHT22;9278;52.156;21.048;2023-05-07T06:11:17;9.40;99.90
18305;DHT22;9278;52.156;21.048;2023-05-07T06:13:46;9.30;99.90
18305;DHT22;9278;52.156;21.048;2023-05-07T06:16:15;9.50;99.90
18305;DHT22;9278;52.156;21.048;2023-05-07T06:18:44;9.00;99.90
18305;DHT22;9278;52.156;21.048;2023-05-07T06:21:15;8.70;99.90
18305;DHT22;9278;52.156;21.048;2023-05-07T06:23:44;9.00;99.90
18305;DHT22;9278;52.156;21.048;2023-05-07T06:26:13;9.10;99.90
18305;DHT22;9278;52.156;21.048;2023-05-07T06:28:45;8.90;99.90
18305;DHT22;9278;52.156;21.048;2023-05-07T06:31:17;8.60;99.90
18305;DHT22;9278;52.156;21.048;2023-05-07T06:34:03;8.70;99.90
18305;DHT22;9278;52.156;21.048;2023-05-07T06:36:36;9.50;99.90
18305;DHT22;9278;52.156;21.048;2023-05-07T06:39:25;9.30;99.90
18305;DHT22;9278;52.156;21.048;2023-05-07T06:44:27;8.90;99.90
18305;DHT22;9278;52.156;21.048;2023-05-07T06:47:05;9.20;99.90
18305;DHT22;9278;52.156;21.048;2023-05-07T06:49:34;9.50;99.90
18305;DHT22;9278;52.156;21.048;2023-05-07T06:52:03;9.60;99.90
18305;DHT22;9278;52.156;21.048;2023-05-07T06:54:33;9.40;99.90
18305;DHT22;9278;52.156;21.048;2023-05-07T06:57:01;9.10;99.90
18305;DHT22;9278;52.156;21.048;2023-05-07T06:59:31;9.00;99.90
18305;DHT22;9278;52.156;21.048;2023-05-07T07:01:59;9.10;1.00
18305;DHT22;9278;52.156;21.048;2023-05-07T07:04:27;9.00;99.90
18305;DHT22;9278;52.156;21.048;2023-05-07T07:07:03;9.30;1.00
18305;DHT22;9278;52.156;21.048;2023-05-07T07:09:33;9.20;1.00
18305;DHT22;9278;52.156;21.048;2023-05-07T07:12:03;9.60;1.00
18305;DHT22;9278;52.156;21.048;2023-05-07T07:14:32;9.90;1.00
18305;DHT22;9278;52.156;21.048;2023-05-07T07:17:00;9.50;1.00
18305;DHT22;9278;52.156;21.048;2023-05-07T07:19:28;10.00;99.90
18305;DHT22;9278;52.156;21.048;2023-05-07T07:21:57;10.00;99.90
18305;DHT22;9278;52.156;21.048;2023-05-07T07:24:26;10.20;99.90
18305;DHT22;9278;52.156;21.048;2023-05-07T07:27:00;10.20;99.90
18305;DHT22;9278;52.156;21.048;2023-05-07T07:29:29;10.60;99.90
18305;DHT22;9278;52.156;21.048;2023-05-07T07:31:57;10.90;99.90
18305;DHT22;9278;52.156;21.048;2023-05-07T07:34:25;10.70;99.90
18305;DHT22;9278;52.156;21.048;2023-05-07T07:36:53;11.10;99.90
18305;DHT22;9278;52.156;21.048;2023-05-07T07:39:23;11.00;99.90
18305;DHT22;9278;52.156;21.048;2023-05-07T07:41:54;11.00;99.90
18305;DHT22;9278;52.156;21.048;2023-05-07T07:44:25;12.30;99.90
18305;DHT22;9278;52.156;21.048;2023-05-07T07:46:58;11.50;99.90
18305;DHT22;9278;52.156;21.048;2023-05-07T07:49:27;10.80;99.90
18305;DHT22;9278;52.156;21.048;2023-05-07T07:51:57;10.30;99.90
18305;DHT22;9278;52.156;21.048;2023-05-07T07:54:27;10.60;99.90
18305;DHT22;9278;52.156;21.048;2023-05-07T07:56:56;10.70;99.90
18305;DHT22;9278;52.156;21.048;2023-05-07T07:59:26;11.10;99.90
18305;DHT22;9278;52.156;21.048;2023-05-07T08:01:54;11.00;99.90
18305;DHT22;9278;52.156;21.048;2023-05-07T08:04:26;10.80;99.90
18305;DHT22;9278;52.156;21.048;2023-05-07T08:06:56;10.60;99.90
18305;DHT22;9278;52.156;21.048;2023-05-07T08:09:25;10.50;99.90
18305;DHT22;9278;52.156;21.048;2023-05-07T08:11:54;10.80;99.90
18305;DHT22;9278;52.156;21.048;2023-05-07T08:14:22;11.30;99.90
18305;DHT22;9278;52.156;21.048;2023-05-07T08:16:52;11.80;99.90
18305;DHT22;9278;52.156;21.048;2023-05-07T08:19:21;11.80;99.90
18305;DHT22;9278;52.156;21.048;2023-05-07T08:21:50;11.90;99.90
18305;DHT22;9278;52.156;21.048;2023-05-07T08:26:48;11.10;99.90
18305;DHT22;9278;52.156;21.048;2023-05-07T08:29:17;11.40;99.90
18305;DHT22;9278;52.156;21.048;2023-05-07T08:31:46;11.60;99.90
18305;DHT22;9278;52.156;21.048;2023-05-07T08:34:16;11.40;99.90
18305;DHT22;9278;52.156;21.048;2023-05-07T08:36:46;11.30;99.90
18305;DHT22;9278;52.156;21.048;2023-05-07T08:39:18;10.90;99.90
18305;DHT22;9278;52.156;21.048;2023-05-07T08:41:53;10.90;99.90
18305;DHT22;9278;52.156;21.048;2023-05-07T08:44:26;10.80;99.90
18305;DHT22;9278;52.156;21.048;2023-05-07T08:46:56;10.40;99.90
18305;DHT22;9278;52.156;21.048;2023-05-07T08:49:28;10.80;99.90
18305;DHT22;9278;52.156;21.048;2023-05-07T08:51:56;11.10;99.90
18305;DHT22;9278;52.156;21.048;2023-05-07T08:56:54;11.50;99.90
18305;DHT22;9278;52.156;21.048;2023-05-07T08:59:23;11.90;99.90
18305;DHT22;9278;52.156;21.048;2023-05-07T09:01:51;11.70;99.90
18305;DHT22;9278;52.156;21.048;2023-05-07T09:04:20;11.10;99.90
18305;DHT22;9278;52.156;21.048;2023-05-07T09:06:49;10.50;99.90
18305;DHT22;9278;52.156;21.048;2023-05-07T09:09:21;10.10;99.90
18305;DHT22;9278;52.156;21.048;2023-05-07T09:11:57;10.90;99.90
18305;DHT22;9278;52.156;21.048;2023-05-07T09:14:28;11.30;99.90
18305;DHT22;9278;52.156;21.048;2023-05-07T09:19:27;12.20;99.90
18305;DHT22;9278;52.156;21.048;2023-05-07T09:22:01;12.60;99.90
18305;DHT22;9278;52.156;21.048;2023-05-07T09:24:40;13.50;99.90
18305;DHT22;9278;52.156;21.048;2023-05-07T09:27:10;13.00;99.90
18305;DHT22;9278;52.156;21.048;2023-05-07T09:29:43;12.30;99.90
18305;DHT22;9278;52.156;21.048;2023-05-07T09:32:14;12.80;99.90
18305;DHT22;9278;52.156;21.048;2023-05-07T09:34:44;12.50;99.90
18305;DHT22;9278;52.156;21.048;2023-05-07T09:37:17;12.30;99.90
18305;DHT22;9278;52.156;21.048;2023-05-07T09:39:49;12.10;99.90
18305;DHT22;9278;52.156;21.048;2023-05-07T09:42:23;12.40;99.90
18305;DHT22;9278;52.156;21.048;2023-05-07T09:44:56;12.00;99.90
18305;DHT22;9278;52.156;21.048;2023-05-07T09:47:30;12.00;99.90
18305;DHT22;9278;52.156;21.048;2023-05-07T09:50:03;12.50;99.90
18305;DHT22;9278;52.156;21.048;2023-05-07T09:52:35;12.40;99.90
18305;DHT22;9278;52.156;21.048;2023-05-07T09:55:06;12.90;99.90
18305;DHT22;9278;52.156;21.048;2023-05-07T09:57:36;12.70;99.90
18305;DHT22;9278;52.156;21.048;2023-05-07T10:00:08;12.30;99.90
18305;DHT22;9278;52.156;21.048;2023-05-07T10:02:49;11.30;99.90
18305;DHT22;9278;52.156;21.048;2023-05-07T10:05:27;11.30;99.90
18305;DHT22;9278;52.156;21.048;2023-05-07T10:08:01;11.20;99.90
18305;DHT22;9278;52.156;21.048;2023-05-07T10:10:33;11.20;99.90
18305;DHT22;9278;52.156;21.048;2023-05-07T10:13:04;11.60;99.90
18305;DHT22;9278;52.156;21.048;2023-05-07T10:15:41;11.40;99.90
18305;DHT22;9278;52.156;21.048;2023-05-07T10:18:12;11.70;99.90
18305;DHT22;9278;52.156;21.048;2023-05-07T10:20:42;11.70;99.90
18305;DHT22;9278;52.156;21.048;2023-05-07T10:23:17;11.80;99.90
18305;DHT22;9278;52.156;21.048;2023-05-07T10:25:48;11.90;99.90
18305;DHT22;9278;52.156;21.048;2023-05-07T10:28:23;11.20;99.90
18305;DHT22;9278;52.156;21.048;2023-05-07T10:31:05;11.10;99.90
18305;DHT22;9278;52.156;21.048;2023-05-07T10:33:42;11.10;99.90
18305;DHT22;9278;52.156;21.048;2023-05-07T10:38:43;11.10;99.90
18305;DHT22;9278;52.156;21.048;2023-05-07T10:41:11;11.40;99.90
18305;DHT22;9278;52.156;21.048;2023-05-07T10:43:43;11.40;99.90
18305;DHT22;9278;52.156;21.048;2023-05-07T10:46:23;11.50;99.90
18305;DHT22;9278;52.156;21.048;2023-05-07T10:49:09;11.50;99.90
18305;DHT22;9278;52.156;21.048;2023-05-07T10:52:11;10.90;99.90
18305;DHT22;9278;52.156;21.048;2023-05-07T10:54:47;10.90;99.90
18305;DHT22;9278;52.156;21.048;2023-05-07T10:57:34;11.60;99.90
18305;DHT22;9278;52.156;21.048;2023-05-07T11:03:11;12.00;99.90
18305;DHT22;9278;52.156;21.048;2023-05-07T11:06:11;11.80;99.90
18305;DHT22;9278;52.156;21.048;2023-05-07T11:08:54;12.30;99.90
18305;DHT22;9278;52.156;21.048;2023-05-07T11:11:48;12.20;99.90
18305;DHT22;9278;52.156;21.048;2023-05-07T11:14:44;12.10;99.90
18305;DHT22;9278;52.156;21.048;2023-05-07T11:17:28;12.40;99.90
18305;DHT22;9278;52.156;21.048;2023-05-07T11:20:07;12.50;99.90
18305;DHT22;9278;52.156;21.048;2023-05-07T11:22:54;12.80;99.90
18305;DHT22;9278;52.156;21.048;2023-05-07T11:25:35;13.50;99.90
18305;DHT22;9278;52.156;21.048;2023-05-07T11:28:14;13.50;99.90
18305;DHT22;9278;52.156;21.048;2023-05-07T11:30:50;13.40;99.90
18305;DHT22;9278;52.156;21.048;2023-05-07T11:33:20;13.00;99.90
18305;DHT22;9278;52.156;21.048;2023-05-07T11:35:52;13.30;99.90
18305;DHT22;9278;52.156;21.048;2023-05-07T11:38:25;13.20;99.90
18305;DHT22;9278;52.156;21.048;2023-05-07T11:40:55;13.40;99.90
18305;DHT22;9278;52.156;21.048;2023-05-07T11:43:25;13.80;99.90
18305;DHT22;9278;52.156;21.048;2023-05-07T11:45:53;14.40;99.90
18305;DHT22;9278;52.156;21.048;2023-05-07T11:48:22;14.10;99.90
18305;DHT22;9278;52.156;21.048;2023-05-07T11:50:50;13.80;99.90
18305;DHT22;9278;52.156;21.048;2023-05-07T11:53:19;14.00;99.90
18305;DHT22;9278;52.156;21.048;2023-05-07T11:55:47;13.60;99.90
18305;DHT22;9278;52.156;21.048;2023-05-07T11:58:21;12.90;99.90
18305;DHT22;9278;52.156;21.048;2023-05-07T12:00:51;13.30;99.90
18305;DHT22;9278;52.156;21.048;2023-05-07T12:03:20;13.10;99.90
18305;DHT22;9278;52.156;21.048;2023-05-07T12:05:49;13.60;99.90
18305;DHT22;9278;52.156;21.048;2023-05-07T12:08:18;14.20;99.90
18305;DHT22;9278;52.156;21.048;2023-05-07T12:10:48;14.00;99.90
18305;DHT22;9278;52.156;21.048;2023-05-07T12:13:17;13.10;99.90
18305;DHT22;9278;52.156;21.048;2023-05-07T12:15:46;12.80;99.90
18305;DHT22;9278;52.156;21.048;2023-05-07T12:18:16;12.80;99.90
18305;DHT22;9278;52.156;21.048;2023-05-07T12:20:44;13.00;99.90
18305;DHT22;9278;52.156;21.048;2023-05-07T12:23:13;12.90;99.90
18305;DHT22;9278;52.156;21.048;2023-05-07T12:25:43;13.00;99.90
18305;DHT22;9278;52.156;21.048;2023-05-07T12:28:16;13.20;99.90
18305;DHT22;9278;52.156;21.048;2023-05-07T12:30:46;13.30;99.90
18305;DHT22;9278;52.156;21.048;2023-05-07T12:33:18;13.40;99.90
18305;DHT22;9278;52.156;21.048;2023-05-07T12:35:48;13.60;1.00
18305;DHT22;9278;52.156;21.048;2023-05-07T12:38:17;13.50;99.90
18305;DHT22;9278;52.156;21.048;2023-05-07T12:40:48;14.20;99.90
18305;DHT22;9278;52.156;21.048;2023-05-07T12:43:19;14.10;99.90
18305;DHT22;9278;52.156;21.048;2023-05-07T12:45:49;13.00;99.90
18305;DHT22;9278;52.156;21.048;2023-05-07T12:48:20;13.00;99.90
18305;DHT22;9278;52.156;21.048;2023-05-07T12:50:53;12.80;99.90
18305;DHT22;9278;52.156;21.048;2023-05-07T12:53:23;13.30;99.90
18305;DHT22;9278;52.156;21.048;2023-05-07T12:55:53;12.00;57.70
18305;DHT22;9278;52.156;21.048;2023-05-07T12:58:25;12.60;99.90
18305;DHT22;9278;52.156;21.048;2023-05-07T13:00:54;13.00;99.90
18305;DHT22;9278;52.156;21.048;2023-05-07T13:03:29;13.00;99.90
18305;DHT22;9278;52.156;21.048;2023-05-07T13:05:59;12.40;99.90
18305;DHT22;9278;52.156;21.048;2023-05-07T13:08:30;12.60;99.90
18305;DHT22;9278;52.156;21.048;2023-05-07T13:10:59;13.30;99.90
18305;DHT22;9278;52.156;21.048;2023-05-07T13:13:30;13.60;99.90
18305;DHT22;9278;52.156;21.048;2023-05-07T13:15:59;13.90;99.90
18305;DHT22;9278;52.156;21.048;2023-05-07T13:18:30;13.10;99.90
18305;DHT22;9278;52.156;21.048;2023-05-07T13:21:00;13.70;99.90
18305;DHT22;9278;52.156;21.048;2023-05-07T13:23:28;13.90;99.90
18305;DHT22;9278;52.156;21.048;2023-05-07T13:25:56;13.80;99.90
18305;DHT22;9278;52.156;21.048;2023-05-07T13:28:27;14.00;99.90
18305;DHT22;9278;52.156;21.048;2023-05-07T13:30:55;14.00;99.90
18305;DHT22;9278;52.156;21.048;2023-05-07T13:33:23;14.20;99.90
18305;DHT22;9278;52.156;21.048;2023-05-07T13:35:53;13.20;99.90
18305;DHT22;9278;52.156;21.048;2023-05-07T13:38:23;13.20;99.90
18305;DHT22;9278;52.156;21.048;2023-05-07T13:40:52;12.80;99.90
18305;DHT22;9278;52.156;21.048;2023-05-07T13:43:20;12.70;99.90
18305;DHT22;9278;52.156;21.048;2023-05-07T13:45:48;12.30;99.90
18305;DHT22;9278;52.156;21.048;2023-05-07T13:48:17;12.00;99.90
18305;DHT22;9278;52.156;21.048;2023-05-07T13:50:45;13.10;99.90
18305;DHT22;9278;52.156;21.048;2023-05-07T13:53:15;13.00;99.90
18305;DHT22;9278;52.156;21.048;2023-05-07T13:55:45;13.00;99.90
18305;DHT22;9278;52.156;21.048;2023-05-07T13:58:13;13.40;99.90
18305;DHT22;9278;52.156;21.048;2023-05-07T14:00:42;13.20;99.90
18305;DHT22;9278;52.156;21.048;2023-05-07T14:03:10;13.10;99.90
18305;DHT22;9278;52.156;21.048;2023-05-07T14:05:38;13.20;99.90
18305;DHT22;9278;52.156;21.048;2023-05-07T14:08:07;13.70;99.90
18305;DHT22;9278;52.156;21.048;2023-05-07T14:10:36;13.30;99.90
18305;DHT22;9278;52.156;21.048;2023-05-07T14:13:05;12.70;99.90
18305;DHT22;9278;52.156;21.048;2023-05-07T14:15:33;12.60;99.90
18305;DHT22;9278;52.156;21.048;2023-05-07T14:18:01;12.90;99.90
18305;DHT22;9278;52.156;21.048;2023-05-07T14:20:29;12.90;99.90
18305;DHT22;9278;52.156;21.048;2023-05-07T14:22:58;13.00;99.90
18305;DHT22;9278;52.156;21.048;2023-05-07T14:25:26;13.20;99.90
18305;DHT22;9278;52.156;21.048;2023-05-07T14:27:55;13.20;99.90
18305;DHT22;9278;52.156;21.048;2023-05-07T14:30:24;13.20;99.90
18305;DHT22;9278;52.156;21.048;2023-05-07T14:32:52;13.60;99.90
18305;DHT22;9278;52.156;21.048;2023-05-07T14:35:21;13.80;99.90
18305;DHT22;9278;52.156;21.048;2023-05-07T14:37:49;13.60;99.90
18305;DHT22;9278;52.156;21.048;2023-05-07T14:40:17;13.50;99.90
18305;DHT22;9278;52.156;21.048;2023-05-07T14:42:45;13.00;99.90
18305;DHT22;9278;52.156;21.048;2023-05-07T14:45:15;12.80;99.90
18305;DHT22;9278;52.156;21.048;2023-05-07T14:47:44;12.90;99.90
18305;DHT22;9278;52.156;21.048;2023-05-07T14:50:12;13.30;99.90
18305;DHT22;9278;52.156;21.048;2023-05-07T14:52:40;13.10;99.90
18305;DHT22;9278;52.156;21.048;2023-05-07T14:55:09;13.00;99.90
18305;DHT22;9278;52.156;21.048;2023-05-07T14:57:37;13.50;99.90
18305;DHT22;9278;52.156;21.048;2023-05-07T15:00:07;13.20;99.90
18305;DHT22;9278;52.156;21.048;2023-05-07T15:02:37;13.10;99.90
18305;DHT22;9278;52.156;21.048;2023-05-07T15:05:06;13.70;99.90
18305;DHT22;9278;52.156;21.048;2023-05-07T15:07:35;13.80;99.90
18305;DHT22;9278;52.156;21.048;2023-05-07T15:10:04;13.20;99.90
18305;DHT22;9278;52.156;21.048;2023-05-07T15:12:32;13.20;99.90
18305;DHT22;9278;52.156;21.048;2023-05-07T15:15:01;13.00;99.90
18305;DHT22;9278;52.156;21.048;2023-05-07T15:17:29;12.70;99.90
18305;DHT22;9278;52.156;21.048;2023-05-07T15:19:59;12.50;99.90
18305;DHT22;9278;52.156;21.048;2023-05-07T15:22:28;12.50;99.90
18305;DHT22;9278;52.156;21.048;2023-05-07T15:24:57;12.50;99.90
18305;DHT22;9278;52.156;21.048;2023-05-07T15:27:25;12.50;99.90
18305;DHT22;9278;52.156;21.048;2023-05-07T15:29:54;12.60;99.90
18305;DHT22;9278;52.156;21.048;2023-05-07T15:32:22;12.80;99.90
18305;DHT22;9278;52.156;21.048;2023-05-07T15:34:50;12.70;99.90
18305;DHT22;9278;52.156;21.048;2023-05-07T15:37:20;12.50;99.90
18305;DHT22;9278;52.156;21.048;2023-05-07T15:39:48;12.40;99.90
18305;DHT22;9278;52.156;21.048;2023-05-07T15:42:16;12.50;99.90
18305;DHT22;9278;52.156;21.048;2023-05-07T15:47:13;13.00;93.50
18305;DHT22;9278;52.156;21.048;2023-05-07T15:49:42;12.50;99.90
18305;DHT22;9278;52.156;21.048;2023-05-07T15:52:10;12.60;99.90
18305;DHT22;9278;52.156;21.048;2023-05-07T15:54:41;12.60;99.90
18305;DHT22;9278;52.156;21.048;2023-05-07T15:57:10;12.70;99.90
18305;DHT22;9278;52.156;21.048;2023-05-07T15:59:38;12.70;99.90
18305;DHT22;9278;52.156;21.048;2023-05-07T16:02:06;12.60;99.90
18305;DHT22;9278;52.156;21.048;2023-05-07T16:04:35;12.70;99.90
18305;DHT22;9278;52.156;21.048;2023-05-07T16:07:03;12.60;99.90
18305;DHT22;9278;52.156;21.048;2023-05-07T16:09:32;12.80;99.90
18305;DHT22;9278;52.156;21.048;2023-05-07T16:12:01;12.80;99.90
18305;DHT22;9278;52.156;21.048;2023-05-07T16:14:29;12.70;99.90
18305;DHT22;9278;52.156;21.048;2023-05-07T16:16:58;12.70;99.90
18305;DHT22;9278;52.156;21.048;2023-05-07T16:19:27;13.30;99.90
18305;DHT22;9278;52.156;21.048;2023-05-07T16:21:56;12.90;99.90
18305;DHT22;9278;52.156;21.048;2023-05-07T16:24:24;13.20;99.90
18305;DHT22;9278;52.156;21.048;2023-05-07T16:26:52;12.80;99.90
18305;DHT22;9278;52.156;21.048;2023-05-07T16:29:22;12.20;99.90
18305;DHT22;9278;52.156;21.048;2023-05-07T16:31:52;12.30;99.90
18305;DHT22;9278;52.156;21.048;2023-05-07T16:34:20;12.20;99.90
18305;DHT22;9278;52.156;21.048;2023-05-07T16:36:49;12.20;99.90
18305;DHT22;9278;52.156;21.048;2023-05-07T16:39:17;12.10;99.90
18305;DHT22;9278;52.156;21.048;2023-05-07T16:41:45;12.10;99.90
18305;DHT22;9278;52.156;21.048;2023-05-07T16:44:16;12.40;99.90
18305;DHT22;9278;52.156;21.048;2023-05-07T16:46:46;11.90;99.90
18305;DHT22;9278;52.156;21.048;2023-05-07T16:49:14;11.80;99.90
18305;DHT22;9278;52.156;21.048;2023-05-07T16:51:43;11.70;99.90
18305;DHT22;9278;52.156;21.048;2023-05-07T16:54:12;11.60;99.90
18305;DHT22;9278;52.156;21.048;2023-05-07T16:56:40;11.40;99.90
18305;DHT22;9278;52.156;21.048;2023-05-07T16:59:09;11.40;99.90
18305;DHT22;9278;52.156;21.048;2023-05-07T17:01:38;11.40;99.90
18305;DHT22;9278;52.156;21.048;2023-05-07T17:04:10;11.40;99.90
18305;DHT22;9278;52.156;21.048;2023-05-07T17:06:39;11.30;99.90
18305;DHT22;9278;52.156;21.048;2023-05-07T17:11:36;11.30;99.90
18305;DHT22;9278;52.156;21.048;2023-05-07T17:14:04;11.20;99.90
18305;DHT22;9278;52.156;21.048;2023-05-07T17:16:33;11.10;99.90
18305;DHT22;9278;52.156;21.048;2023-05-07T17:19:01;11.10;99.90
18305;DHT22;9278;52.156;21.048;2023-05-07T17:21:30;11.00;99.90
18305;DHT22;9278;52.156;21.048;2023-05-07T17:23:59;10.90;99.90
18305;DHT22;9278;52.156;21.048;2023-05-07T17:26:27;10.80;99.90
18305;DHT22;9278;52.156;21.048;2023-05-07T17:28:57;10.80;99.90
18305;DHT22;9278;52.156;21.048;2023-05-07T17:31:25;10.70;99.90
18305;DHT22;9278;52.156;21.048;2023-05-07T17:33:53;10.60;99.90
18305;DHT22;9278;52.156;21.048;2023-05-07T17:36:22;10.50;99.90
18305;DHT22;9278;52.156;21.048;2023-05-07T17:38:51;10.40;99.90
18305;DHT22;9278;52.156;21.048;2023-05-07T17:43:48;10.20;99.90
18305;DHT22;9278;52.156;21.048;2023-05-07T17:46:16;10.10;99.90
18305;DHT22;9278;52.156;21.048;2023-05-07T17:48:45;10.00;99.90
18305;DHT22;9278;52.156;21.048;2023-05-07T17:51:13;9.90;99.90
18305;DHT22;9278;52.156;21.048;2023-05-07T17:56:11;9.70;99.90
18305;DHT22;9278;52.156;21.048;2023-05-07T17:58:39;9.60;99.90
18305;DHT22;9278;52.156;21.048;2023-05-07T18:01:13;9.50;99.90
18305;DHT22;9278;52.156;21.048;2023-05-07T18:03:41;9.40;99.90
18305;DHT22;9278;52.156;21.048;2023-05-07T18:06:10;9.20;99.90
18305;DHT22;9278;52.156;21.048;2023-05-07T18:08:43;9.10;99.90
18305;DHT22;9278;52.156;21.048;2023-05-07T18:11:13;9.00;99.90
18305;DHT22;9278;52.156;21.048;2023-05-07T18:13:41;8.80;99.90
18305;DHT22;9278;52.156;21.048;2023-05-07T18:16:10;8.70;99.90
18305;DHT22;9278;52.156;21.048;2023-05-07T18:18:38;8.60;99.90
18305;DHT22;9278;52.156;21.048;2023-05-07T18:21:06;8.60;99.90
18305;DHT22;9278;52.156;21.048;2023-05-07T18:26:09;8.30;99.90
18305;DHT22;9278;52.156;21.048;2023-05-07T18:28:39;8.30;99.90
18305;DHT22;9278;52.156;21.048;2023-05-07T18:31:07;8.10;99.90
18305;DHT22;9278;52.156;21.048;2023-05-07T18:33:36;8.00;99.90
18305;DHT22;9278;52.156;21.048;2023-05-07T18:36:05;7.90;99.90
18305;DHT22;9278;52.156;21.048;2023-05-07T18:38:33;7.80;99.90
18305;DHT22;9278;52.156;21.048;2023-05-07T18:41:02;7.80;99.90
18305;DHT22;9278;52.156;21.048;2023-05-07T18:43:31;7.70;99.90
18305;DHT22;9278;52.156;21.048;2023-05-07T18:46:02;7.60;99.90
18305;DHT22;9278;52.156;21.048;2023-05-07T18:48:30;7.50;99.90
18305;DHT22;9278;52.156;21.048;2023-05-07T18:53:28;7.50;99.90
18305;DHT22;9278;52.156;21.048;2023-05-07T18:55:56;7.50;99.90
18305;DHT22;9278;52.156;21.048;2023-05-07T18:58:26;7.50;99.90
18305;DHT22;9278;52.156;21.048;2023-05-07T19:00:54;7.40;99.90
18305;DHT22;9278;52.156;21.048;2023-05-07T19:03:24;7.30;99.90
18305;DHT22;9278;52.156;21.048;2023-05-07T19:05:52;7.20;99.90
18305;DHT22;9278;52.156;21.048;2023-05-07T19:08:21;7.20;99.90
18305;DHT22;9278;52.156;21.048;2023-05-07T19:10:50;7.10;99.90
18305;DHT22;9278;52.156;21.048;2023-05-07T19:13:18;7.10;99.90
18305;DHT22;9278;52.156;21.048;2023-05-07T19:15:47;7.10;99.90
18305;DHT22;9278;52.156;21.048;2023-05-07T19:18:15;7.00;99.90
18305;DHT22;9278;52.156;21.048;2023-05-07T19:20:46;7.00;99.90
18305;DHT22;9278;52.156;21.048;2023-05-07T19:23:15;6.90;99.90
18305;DHT22;9278;52.156;21.048;2023-05-07T19:25:43;6.90;99.90
18305;DHT22;9278;52.156;21.048;2023-05-07T19:28:11;6.90;99.90
18305;DHT22;9278;52.156;21.048;2023-05-07T19:30:40;6.80;99.90
18305;DHT22;9278;52.156;21.048;2023-05-07T19:33:08;6.90;99.90
18305;DHT22;9278;52.156;21.048;2023-05-07T19:38:07;6.70;99.90
18305;DHT22;9278;52.156;21.048;2023-05-07T19:40:35;6.60;99.90
18305;DHT22;9278;52.156;21.048;2023-05-07T19:45:33;6.60;99.90
18305;DHT22;9278;52.156;21.048;2023-05-07T19:48:01;6.60;99.90
18305;DHT22;9278;52.156;21.048;2023-05-07T19:50:29;8.10;99.90
18305;DHT22;9278;52.156;21.048;2023-05-07T19:52:58;6.30;99.90
18305;DHT22;9278;52.156;21.048;2023-05-07T19:55:27;6.40;99.90
18305;DHT22;9278;52.156;21.048;2023-05-07T19:57:55;6.40;99.90